• Join FlightAware (Why Join?)
  • Login
  • US Flag 
01:33PM EDT


 

Airport Tracker/Info


-or-


 

Live Flight TrackerFlight Track Log ✈ N797MA ✈ 29-Apr-2012 ✈ KARR - KDSM

Flight Track Log - Related Links

Times and Time Zones

All times are in EDT time to prevent confusion due to time zone crossing. See the N797MA flight status page for this flight to view local times or setup timezone preferences in your user account.

Time Position Orientation Groundspeed Altitude Reporting Facility
EDT Latitude Longitude Course Direction KTS MPH feet Rate Location/Type
10:18AM 41.8000 -88.5000 268° West 146 168 1,900  Level Chicago TRACON
11:12AM 41.6453 -91.9703 266° West 184 212 6,000 60 Climbing Chicago Center
11:13AM 41.6419 -92.0286 263° West 184 212 6,000  Level Chicago Center
11:14AM 41.6361 -92.0950 266° West 178 205 6,000  Level Chicago Center
11:15AM 41.6325 -92.1586 266° West 178 205 6,000  Level Chicago Center
11:16AM 41.6286 -92.2253 263° West 178 205 6,000  Level Chicago Center
11:17AM 41.6231 -92.2889 265° West 178 205 6,000  Level Chicago Center
11:18AM 41.6192 -92.3525 265° West 178 205 6,000  Level Chicago Center
11:19AM 41.6153 -92.4164 266° West 183 211 6,000  Level Chicago Center
11:20AM 41.6114 -92.4828 270° West 183 211 6,000  Level Chicago Center
11:22AM 41.6111 -92.6267 263° West 180 207 6,000  Level Minneapolis Center
11:23AM 41.6053 -92.6931 266° West 179 206 6,000  Level Minneapolis Center
11:24AM 41.6017 -92.7597 265° West 177 204 6,000  Level Minneapolis Center
11:25AM 41.5978 -92.8236 263° West 175 201 6,000  Level Minneapolis Center
11:26AM 41.5919 -92.8900 268° West 175 201 6,000  Level Minneapolis Center
11:27AM 41.5903 -92.9456 266° West 175 201 6,000  Level Minneapolis Center
11:28AM 41.5864 -93.0147 263° West 175 201 6,000 -60 Level Minneapolis Center
11:29AM 41.5803 -93.0814 263° West 175 201 5,900 -300 Descending Minneapolis Center
11:30AM 41.5742 -93.1478 255° West 185 213 5,400 -540 Descending Minneapolis Center
11:31AM 41.5619 -93.2089 258° West 185 213 4,900 -540 Descending Minneapolis Center
11:32AM 41.5517 -93.2725 258° West 179 206 4,400 -480 Descending Minneapolis Center
11:33AM 41.5414 -93.3364 258° West 178 205 4,000 -300 Descending Minneapolis Center
11:34AM 41.5308 -93.4000 258° West 169 194 3,900  Descending Minneapolis Center
11:35AM 41.5225 -93.4525 259° West 156 180 4,000  Climbing Minneapolis Center
11:36AM 41.5142 -93.5081 254° West 153 176 4,000  Level Minneapolis Center
11:37AM 41.5017 -93.5661 237° Southwest 151 174 4,000  Level Minneapolis Center
11:38AM 41.4789 -93.6131 236° Southwest 147 169 4,000  Level Minneapolis Center
11:40AM 41.4536 -93.6628 237° Southwest 149 171 4,000  Level Minneapolis Center
11:41AM 41.4308 -93.7097 240° Southwest 149 171 4,000  Level Minneapolis Center
11:42AM 41.4097 -93.7594 264° West 150 173 4,000 -120 Level Minneapolis Center
11:43AM 41.4056 -93.8092 264° West 163 188 3,800 -240 Descending Minneapolis Center